sensor_id;sensor_type;location;lat;lon;timestamp;temperature;humidity
7902;DHT22;3996;49.674;10.716;2024-01-11T00:01:26;-3.30;23.40
7902;DHT22;3996;49.674;10.716;2024-01-11T00:03:52;-3.20;23.30
7902;DHT22;3996;49.674;10.716;2024-01-11T00:06:17;-3.20;23.20
7902;DHT22;3996;49.674;10.716;2024-01-11T00:08:43;-3.20;23.20
7902;DHT22;3996;49.674;10.716;2024-01-11T00:11:09;-3.20;23.20
7902;DHT22;3996;49.674;10.716;2024-01-11T00:13:34;-3.20;23.20
7902;DHT22;3996;49.674;10.716;2024-01-11T00:16:00;-3.20;23.20
7902;DHT22;3996;49.674;10.716;2024-01-11T00:18:25;-3.20;23.20
7902;DHT22;3996;49.674;10.716;2024-01-11T00:20:51;-3.30;23.10
7902;DHT22;3996;49.674;10.716;2024-01-11T00:23:17;-3.30;23.10
7902;DHT22;3996;49.674;10.716;2024-01-11T00:25:43;-3.40;23.10
7902;DHT22;3996;49.674;10.716;2024-01-11T00:28:08;-3.50;23.00
7902;DHT22;3996;49.674;10.716;2024-01-11T00:30:34;-3.60;23.10
7902;DHT22;3996;49.674;10.716;2024-01-11T00:33:02;-3.60;22.90
7902;DHT22;3996;49.674;10.716;2024-01-11T00:35:28;-3.60;23.30
7902;DHT22;3996;49.674;10.716;2024-01-11T00:37:54;-3.60;23.30
7902;DHT22;3996;49.674;10.716;2024-01-11T00:40:19;-3.60;22.90
7902;DHT22;3996;49.674;10.716;2024-01-11T00:42:45;-3.60;23.30
7902;DHT22;3996;49.674;10.716;2024-01-11T00:45:11;-3.80;23.30
7902;DHT22;3996;49.674;10.716;2024-01-11T00:47:36;-3.80;23.50
7902;DHT22;3996;49.674;10.716;2024-01-11T00:50:02;-3.90;23.60
7902;DHT22;3996;49.674;10.716;2024-01-11T00:52:28;-3.90;24.30
7902;DHT22;3996;49.674;10.716;2024-01-11T00:54:53;-3.80;24.00
7902;DHT22;3996;49.674;10.716;2024-01-11T00:57:19;-3.80;23.80
7902;DHT22;3996;49.674;10.716;2024-01-11T00:59:45;-3.80;23.50
7902;DHT22;3996;49.674;10.716;2024-01-11T01:02:10;-3.70;24.00
7902;DHT22;3996;49.674;10.716;2024-01-11T01:04:39;-3.70;23.50
7902;DHT22;3996;49.674;10.716;2024-01-11T01:07:05;-3.70;23.20
7902;DHT22;3996;49.674;10.716;2024-01-11T01:09:33;-3.70;23.20
7902;DHT22;3996;49.674;10.716;2024-01-11T01:11:58;-3.70;22.80
7902;DHT22;3996;49.674;10.716;2024-01-11T01:14:24;-3.90;22.70
7902;DHT22;3996;49.674;10.716;2024-01-11T01:16:50;-4.10;22.60
7902;DHT22;3996;49.674;10.716;2024-01-11T01:19:15;-4.00;23.50
7902;DHT22;3996;49.674;10.716;2024-01-11T01:21:41;-4.10;23.20
7902;DHT22;3996;49.674;10.716;2024-01-11T01:24:06;-4.00;23.30
7902;DHT22;3996;49.674;10.716;2024-01-11T01:26:32;-4.00;23.20
7902;DHT22;3996;49.674;10.716;2024-01-11T01:28:58;-4.00;23.30
7902;DHT22;3996;49.674;10.716;2024-01-11T01:31:23;-4.00;23.40
7902;DHT22;3996;49.674;10.716;2024-01-11T01:33:49;-4.10;23.80
7902;DHT22;3996;49.674;10.716;2024-01-11T01:36:14;-4.20;23.80
7902;DHT22;3996;49.674;10.716;2024-01-11T01:38:40;-4.30;24.20
7902;DHT22;3996;49.674;10.716;2024-01-11T01:41:06;-4.30;24.40
7902;DHT22;3996;49.674;10.716;2024-01-11T01:43:31;-4.20;24.10
7902;DHT22;3996;49.674;10.716;2024-01-11T01:45:58;-4.20;23.80
7902;DHT22;3996;49.674;10.716;2024-01-11T01:48:23;-4.30;23.60
7902;DHT22;3996;49.674;10.716;2024-01-11T01:50:49;-4.20;24.30
7902;DHT22;3996;49.674;10.716;2024-01-11T01:53:19;-4.10;23.80
7902;DHT22;3996;49.674;10.716;2024-01-11T01:55:46;-4.10;23.90
7902;DHT22;3996;49.674;10.716;2024-01-11T01:58:13;-4.10;24.30
7902;DHT22;3996;49.674;10.716;2024-01-11T02:00:39;-4.20;23.40
7902;DHT22;3996;49.674;10.716;2024-01-11T02:03:07;-4.10;23.60
7902;DHT22;3996;49.674;10.716;2024-01-11T02:05:33;-4.10;23.40
7902;DHT22;3996;49.674;10.716;2024-01-11T02:08:01;-4.10;23.20
7902;DHT22;3996;49.674;10.716;2024-01-11T02:10:30;-4.30;23.40
7902;DHT22;3996;49.674;10.716;2024-01-11T02:12:58;-4.40;23.30
7902;DHT22;3996;49.674;10.716;2024-01-11T02:15:24;-4.30;23.90
7902;DHT22;3996;49.674;10.716;2024-01-11T02:17:50;-4.30;23.60
7902;DHT22;3996;49.674;10.716;2024-01-11T02:20:15;-4.30;23.60
7902;DHT22;3996;49.674;10.716;2024-01-11T02:22:47;-4.30;23.90
7902;DHT22;3996;49.674;10.716;2024-01-11T02:25:15;-4.50;23.40
7902;DHT22;3996;49.674;10.716;2024-01-11T02:27:48;-4.60;23.70
7902;DHT22;3996;49.674;10.716;2024-01-11T02:30:14;-4.50;24.40
7902;DHT22;3996;49.674;10.716;2024-01-11T02:32:41;-4.50;23.20
7902;DHT22;3996;49.674;10.716;2024-01-11T02:35:08;-4.50;23.90
7902;DHT22;3996;49.674;10.716;2024-01-11T02:37:35;-4.40;23.60
7902;DHT22;3996;49.674;10.716;2024-01-11T02:40:01;-4.40;23.30
7902;DHT22;3996;49.674;10.716;2024-01-11T02:42:27;-4.50;23.50
7902;DHT22;3996;49.674;10.716;2024-01-11T02:44:53;-4.70;23.30
7902;DHT22;3996;49.674;10.716;2024-01-11T02:47:19;-4.50;23.80
7902;DHT22;3996;49.674;10.716;2024-01-11T02:49:44;-4.60;23.50
7902;DHT22;3996;49.674;10.716;2024-01-11T02:52:10;-4.50;23.70
7902;DHT22;3996;49.674;10.716;2024-01-11T02:54:35;-4.50;23.50
7902;DHT22;3996;49.674;10.716;2024-01-11T02:57:01;-4.50;23.50
7902;DHT22;3996;49.674;10.716;2024-01-11T02:59:27;-4.60;23.30
7902;DHT22;3996;49.674;10.716;2024-01-11T03:01:52;-4.70;23.50
7902;DHT22;3996;49.674;10.716;2024-01-11T03:04:18;-4.90;24.30
7902;DHT22;3996;49.674;10.716;2024-01-11T03:06:44;-4.70;24.60
7902;DHT22;3996;49.674;10.716;2024-01-11T03:09:09;-4.80;24.20
7902;DHT22;3996;49.674;10.716;2024-01-11T03:11:35;-4.70;24.20
7902;DHT22;3996;49.674;10.716;2024-01-11T03:14:03;-4.50;24.10
7902;DHT22;3996;49.674;10.716;2024-01-11T03:16:28;-4.50;23.40
7902;DHT22;3996;49.674;10.716;2024-01-11T03:18:54;-4.50;23.20
7902;DHT22;3996;49.674;10.716;2024-01-11T03:21:20;-4.40;23.50
7902;DHT22;3996;49.674;10.716;2024-01-11T03:23:45;-4.40;23.10
7902;DHT22;3996;49.674;10.716;2024-01-11T03:26:15;-4.50;22.80
7902;DHT22;3996;49.674;10.716;2024-01-11T03:28:41;-4.50;22.70
7902;DHT22;3996;49.674;10.716;2024-01-11T03:31:09;-4.70;23.60
7902;DHT22;3996;49.674;10.716;2024-01-11T03:33:37;-4.90;24.00
7902;DHT22;3996;49.674;10.716;2024-01-11T03:36:10;-4.90;24.30
7902;DHT22;3996;49.674;10.716;2024-01-11T03:38:36;-4.80;24.50
7902;DHT22;3996;49.674;10.716;2024-01-11T03:41:02;-4.80;24.40
7902;DHT22;3996;49.674;10.716;2024-01-11T03:43:28;-4.90;24.60
7902;DHT22;3996;49.674;10.716;2024-01-11T03:45:53;-4.90;24.30
7902;DHT22;3996;49.674;10.716;2024-01-11T03:48:19;-4.90;24.30
7902;DHT22;3996;49.674;10.716;2024-01-11T03:50:45;-4.90;23.80
7902;DHT22;3996;49.674;10.716;2024-01-11T03:53:10;-5.00;23.80
7902;DHT22;3996;49.674;10.716;2024-01-11T03:55:36;-4.90;24.30
7902;DHT22;3996;49.674;10.716;2024-01-11T03:58:02;-4.80;24.20
7902;DHT22;3996;49.674;10.716;2024-01-11T04:00:27;-4.90;23.70
7902;DHT22;3996;49.674;10.716;2024-01-11T04:02:53;-4.80;23.70
7902;DHT22;3996;49.674;10.716;2024-01-11T04:05:19;-5.00;22.90
7902;DHT22;3996;49.674;10.716;2024-01-11T04:07:44;-4.90;23.80
7902;DHT22;3996;49.674;10.716;2024-01-11T04:10:10;-5.00;23.10
7902;DHT22;3996;49.674;10.716;2024-01-11T04:12:36;-5.00;23.40
7902;DHT22;3996;49.674;10.716;2024-01-11T04:15:03;-5.00;23.90
7902;DHT22;3996;49.674;10.716;2024-01-11T04:17:29;-4.90;23.70
7902;DHT22;3996;49.674;10.716;2024-01-11T04:19:54;-5.00;23.70
7902;DHT22;3996;49.674;10.716;2024-01-11T04:22:20;-5.20;24.40
7902;DHT22;3996;49.674;10.716;2024-01-11T04:24:46;-5.10;24.00
7902;DHT22;3996;49.674;10.716;2024-01-11T04:27:11;-5.00;24.00
7902;DHT22;3996;49.674;10.716;2024-01-11T04:29:40;-5.10;23.40
7902;DHT22;3996;49.674;10.716;2024-01-11T04:32:06;-5.00;23.60
7902;DHT22;3996;49.674;10.716;2024-01-11T04:34:31;-5.00;23.70
7902;DHT22;3996;49.674;10.716;2024-01-11T04:36:57;-5.00;23.80
7902;DHT22;3996;49.674;10.716;2024-01-11T04:39:23;-5.00;23.50
7902;DHT22;3996;49.674;10.716;2024-01-11T04:41:48;-5.00;23.40
7902;DHT22;3996;49.674;10.716;2024-01-11T04:44:14;-5.10;23.90
7902;DHT22;3996;49.674;10.716;2024-01-11T04:46:40;-5.00;24.00
7902;DHT22;3996;49.674;10.716;2024-01-11T04:49:06;-5.10;23.90
7902;DHT22;3996;49.674;10.716;2024-01-11T04:51:32;-5.00;24.00
7902;DHT22;3996;49.674;10.716;2024-01-11T04:53:57;-5.00;23.70
7902;DHT22;3996;49.674;10.716;2024-01-11T04:56:23;-5.10;23.80
7902;DHT22;3996;49.674;10.716;2024-01-11T04:58:49;-5.30;24.80
7902;DHT22;3996;49.674;10.716;2024-01-11T05:01:15;-5.10;24.60
7902;DHT22;3996;49.674;10.716;2024-01-11T05:03:42;-5.00;24.00
7902;DHT22;3996;49.674;10.716;2024-01-11T05:06:08;-5.10;24.10
7902;DHT22;3996;49.674;10.716;2024-01-11T05:08:34;-5.20;24.20
7902;DHT22;3996;49.674;10.716;2024-01-11T05:10:59;-5.20;24.10
7902;DHT22;3996;49.674;10.716;2024-01-11T05:13:25;-5.10;24.10
7902;DHT22;3996;49.674;10.716;2024-01-11T05:15:51;-5.20;23.40
7902;DHT22;3996;49.674;10.716;2024-01-11T05:18:16;-5.30;24.00
7902;DHT22;3996;49.674;10.716;2024-01-11T05:20:42;-5.20;24.20
7902;DHT22;3996;49.674;10.716;2024-01-11T05:23:07;-5.10;24.10
7902;DHT22;3996;49.674;10.716;2024-01-11T05:25:34;-5.20;23.70
7902;DHT22;3996;49.674;10.716;2024-01-11T05:28:00;-5.30;23.50
7902;DHT22;3996;49.674;10.716;2024-01-11T05:30:26;-5.30;23.90
7902;DHT22;3996;49.674;10.716;2024-01-11T05:32:53;-5.60;24.60
7902;DHT22;3996;49.674;10.716;2024-01-11T05:35:18;-5.50;25.00
7902;DHT22;3996;49.674;10.716;2024-01-11T05:37:44;-5.40;24.50
7902;DHT22;3996;49.674;10.716;2024-01-11T05:40:09;-5.30;24.10
7902;DHT22;3996;49.674;10.716;2024-01-11T05:42:35;-5.30;24.10
7902;DHT22;3996;49.674;10.716;2024-01-11T05:45:01;-5.30;23.80
7902;DHT22;3996;49.674;10.716;2024-01-11T05:47:26;-5.30;23.50
7902;DHT22;3996;49.674;10.716;2024-01-11T05:49:52;-5.50;24.40
7902;DHT22;3996;49.674;10.716;2024-01-11T05:52:17;-5.80;24.90
7902;DHT22;3996;49.674;10.716;2024-01-11T05:54:43;-5.70;25.00
7902;DHT22;3996;49.674;10.716;2024-01-11T05:57:09;-5.60;24.60
7902;DHT22;3996;49.674;10.716;2024-01-11T05:59:34;-5.60;24.10
7902;DHT22;3996;49.674;10.716;2024-01-11T06:02:00;-5.50;24.20
7902;DHT22;3996;49.674;10.716;2024-01-11T06:04:27;-5.40;23.80
7902;DHT22;3996;49.674;10.716;2024-01-11T06:06:53;-5.50;24.10
7902;DHT22;3996;49.674;10.716;2024-01-11T06:09:18;-5.40;23.70
7902;DHT22;3996;49.674;10.716;2024-01-11T06:11:44;-5.50;23.70
7902;DHT22;3996;49.674;10.716;2024-01-11T06:14:09;-5.50;23.40
7902;DHT22;3996;49.674;10.716;2024-01-11T06:16:35;-5.70;24.00
7902;DHT22;3996;49.674;10.716;2024-01-11T06:19:01;-5.60;24.40
7902;DHT22;3996;49.674;10.716;2024-01-11T06:21:26;-5.50;23.90
7902;DHT22;3996;49.674;10.716;2024-01-11T06:23:52;-5.50;24.20
7902;DHT22;3996;49.674;10.716;2024-01-11T06:26:18;-5.40;23.60
7902;DHT22;3996;49.674;10.716;2024-01-11T06:28:43;-5.60;23.90
7902;DHT22;3996;49.674;10.716;2024-01-11T06:31:12;-5.60;24.00
7902;DHT22;3996;49.674;10.716;2024-01-11T06:33:41;-5.70;24.40
7902;DHT22;3996;49.674;10.716;2024-01-11T06:36:07;-5.70;23.40
7902;DHT22;3996;49.674;10.716;2024-01-11T06:38:33;-5.60;23.90
7902;DHT22;3996;49.674;10.716;2024-01-11T06:40:59;-5.60;23.90
7902;DHT22;3996;49.674;10.716;2024-01-11T06:43:27;-5.60;23.80
7902;DHT22;3996;49.674;10.716;2024-01-11T06:45:53;-5.50;24.00
7902;DHT22;3996;49.674;10.716;2024-01-11T06:48:19;-5.40;23.80
7902;DHT22;3996;49.674;10.716;2024-01-11T06:50:45;-5.50;23.60
7902;DHT22;3996;49.674;10.716;2024-01-11T06:53:11;-5.50;23.40
7902;DHT22;3996;49.674;10.716;2024-01-11T06:55:36;-5.70;24.80
7902;DHT22;3996;49.674;10.716;2024-01-11T06:58:02;-5.80;25.10
7902;DHT22;3996;49.674;10.716;2024-01-11T07:00:28;-5.70;25.00
7902;DHT22;3996;49.674;10.716;2024-01-11T07:02:54;-5.60;24.20
7902;DHT22;3996;49.674;10.716;2024-01-11T07:05:20;-5.50;23.90
7902;DHT22;3996;49.674;10.716;2024-01-11T07:07:46;-5.70;23.90
7902;DHT22;3996;49.674;10.716;2024-01-11T07:10:11;-5.80;24.50
7902;DHT22;3996;49.674;10.716;2024-01-11T07:12:38;-5.80;24.20
7902;DHT22;3996;49.674;10.716;2024-01-11T07:15:04;-5.90;24.60
7902;DHT22;3996;49.674;10.716;2024-01-11T07:17:30;-5.80;24.20
7902;DHT22;3996;49.674;10.716;2024-01-11T07:19:56;-5.70;24.10
7902;DHT22;3996;49.674;10.716;2024-01-11T07:22:21;-5.60;24.00
7902;DHT22;3996;49.674;10.716;2024-01-11T07:24:47;-5.60;24.30
7902;DHT22;3996;49.674;10.716;2024-01-11T07:27:13;-5.60;24.90
7902;DHT22;3996;49.674;10.716;2024-01-11T07:29:38;-5.60;24.40
7902;DHT22;3996;49.674;10.716;2024-01-11T07:32:04;-5.60;24.00
7902;DHT22;3996;49.674;10.716;2024-01-11T07:34:30;-5.60;23.90
7902;DHT22;3996;49.674;10.716;2024-01-11T07:36:55;-5.60;23.90
7902;DHT22;3996;49.674;10.716;2024-01-11T07:39:24;-5.60;24.10
7902;DHT22;3996;49.674;10.716;2024-01-11T07:41:50;-5.50;23.90
7902;DHT22;3996;49.674;10.716;2024-01-11T07:44:15;-5.50;24.60
7902;DHT22;3996;49.674;10.716;2024-01-11T07:46:41;-5.40;24.40
7902;DHT22;3996;49.674;10.716;2024-01-11T07:49:07;-5.40;24.40
7902;DHT22;3996;49.674;10.716;2024-01-11T07:51:33;-5.40;24.50
7902;DHT22;3996;49.674;10.716;2024-01-11T07:54:00;-5.30;24.30
7902;DHT22;3996;49.674;10.716;2024-01-11T07:56:25;-5.30;24.30
7902;DHT22;3996;49.674;10.716;2024-01-11T07:58:51;-5.40;24.80
7902;DHT22;3996;49.674;10.716;2024-01-11T08:01:17;-5.30;25.00
7902;DHT22;3996;49.674;10.716;2024-01-11T08:03:43;-5.00;24.80
7902;DHT22;3996;49.674;10.716;2024-01-11T08:06:10;-4.10;22.60
7902;DHT22;3996;49.674;10.716;2024-01-11T08:08:37;-3.00;20.00
7902;DHT22;3996;49.674;10.716;2024-01-11T08:11:07;-2.50;18.10
7902;DHT22;3996;49.674;10.716;2024-01-11T08:13:49;-1.90;16.90
7902;DHT22;3996;49.674;10.716;2024-01-11T08:16:17;-1.40;15.20
7902;DHT22;3996;49.674;10.716;2024-01-11T08:18:53;-1.30;14.90
7902;DHT22;3996;49.674;10.716;2024-01-11T08:21:22;-1.00;14.70
7902;DHT22;3996;49.674;10.716;2024-01-11T08:23:48;-1.40;14.80
7902;DHT22;3996;49.674;10.716;2024-01-11T08:26:15;-1.00;14.90
7902;DHT22;3996;49.674;10.716;2024-01-11T08:28:56;-0.40;13.20
7902;DHT22;3996;49.674;10.716;2024-01-11T08:31:30;-0.10;13.20
7902;DHT22;3996;49.674;10.716;2024-01-11T08:33:56;0.10;12.20
7902;DHT22;3996;49.674;10.716;2024-01-11T08:36:22;0.30;11.10
7902;DHT22;3996;49.674;10.716;2024-01-11T08:38:49;0.20;11.40
7902;DHT22;3996;49.674;10.716;2024-01-11T08:41:15;0.30;11.70
7902;DHT22;3996;49.674;10.716;2024-01-11T08:43:40;0.10;12.70
7902;DHT22;3996;49.674;10.716;2024-01-11T08:46:09;0.50;11.90
7902;DHT22;3996;49.674;10.716;2024-01-11T08:48:35;0.90;11.10
7902;DHT22;3996;49.674;10.716;2024-01-11T08:51:01;0.00;12.00
7902;DHT22;3996;49.674;10.716;2024-01-11T08:53:31;-0.20;12.80
7902;DHT22;3996;49.674;10.716;2024-01-11T08:56:08;0.10;13.50
7902;DHT22;3996;49.674;10.716;2024-01-11T08:58:39;0.40;13.00
7902;DHT22;3996;49.674;10.716;2024-01-11T09:01:05;0.40;13.10
7902;DHT22;3996;49.674;10.716;2024-01-11T09:03:41;-0.20;14.30
7902;DHT22;3996;49.674;10.716;2024-01-11T09:06:40;0.00;15.30
7902;DHT22;3996;49.674;10.716;2024-01-11T09:09:39;0.20;14.70
7902;DHT22;3996;49.674;10.716;2024-01-11T09:12:12;0.40;14.20
7902;DHT22;3996;49.674;10.716;2024-01-11T09:14:38;0.40;14.20
7902;DHT22;3996;49.674;10.716;2024-01-11T09:17:04;0.40;14.90
7902;DHT22;3996;49.674;10.716;2024-01-11T09:19:32;0.50;14.80
7902;DHT22;3996;49.674;10.716;2024-01-11T09:21:59;0.50;14.10
7902;DHT22;3996;49.674;10.716;2024-01-11T09:24:25;0.10;13.90
7902;DHT22;3996;49.674;10.716;2024-01-11T09:26:51;-0.20;15.20
7902;DHT22;3996;49.674;10.716;2024-01-11T09:29:16;-0.40;15.90
7902;DHT22;3996;49.674;10.716;2024-01-11T09:31:42;-0.30;16.40
7902;DHT22;3996;49.674;10.716;2024-01-11T09:34:08;-0.10;16.60
7902;DHT22;3996;49.674;10.716;2024-01-11T09:36:34;0.30;15.90
7902;DHT22;3996;49.674;10.716;2024-01-11T09:38:59;0.80;14.20
7902;DHT22;3996;49.674;10.716;2024-01-11T09:41:25;1.00;13.60
7902;DHT22;3996;49.674;10.716;2024-01-11T09:43:54;1.40;11.80
7902;DHT22;3996;49.674;10.716;2024-01-11T09:46:23;1.30;11.80
7902;DHT22;3996;49.674;10.716;2024-01-11T09:48:50;1.70;11.60
7902;DHT22;3996;49.674;10.716;2024-01-11T09:51:17;2.00;11.20
7902;DHT22;3996;49.674;10.716;2024-01-11T09:53:43;2.60;10.10
7902;DHT22;3996;49.674;10.716;2024-01-11T09:56:10;2.10;10.00
7902;DHT22;3996;49.674;10.716;2024-01-11T09:58:36;1.50;11.90
7902;DHT22;3996;49.674;10.716;2024-01-11T10:01:02;1.50;11.90
7902;DHT22;3996;49.674;10.716;2024-01-11T10:03:29;1.30;12.20
7902;DHT22;3996;49.674;10.716;2024-01-11T10:05:57;1.50;12.40
7902;DHT22;3996;49.674;10.716;2024-01-11T10:08:24;1.40;12.00
7902;DHT22;3996;49.674;10.716;2024-01-11T10:10:50;1.50;11.90
7902;DHT22;3996;49.674;10.716;2024-01-11T10:13:16;2.10;10.60
7902;DHT22;3996;49.674;10.716;2024-01-11T10:15:46;2.60;10.00
7902;DHT22;3996;49.674;10.716;2024-01-11T10:18:27;2.40;10.10
7902;DHT22;3996;49.674;10.716;2024-01-11T10:20:57;2.90;8.90
7902;DHT22;3996;49.674;10.716;2024-01-11T10:23:23;3.80;7.80
7902;DHT22;3996;49.674;10.716;2024-01-11T10:25:56;4.60;5.20
7902;DHT22;3996;49.674;10.716;2024-01-11T10:28:36;4.20;6.20
7902;DHT22;3996;49.674;10.716;2024-01-11T10:31:04;3.80;6.30
7902;DHT22;3996;49.674;10.716;2024-01-11T10:33:33;3.30;7.40
7902;DHT22;3996;49.674;10.716;2024-01-11T10:36:00;3.80;6.50
7902;DHT22;3996;49.674;10.716;2024-01-11T10:38:26;4.20;5.40
7902;DHT22;3996;49.674;10.716;2024-01-11T10:40:55;4.10;6.70
7902;DHT22;3996;49.674;10.716;2024-01-11T10:43:24;3.20;7.20
7902;DHT22;3996;49.674;10.716;2024-01-11T10:45:51;2.60;8.70
7902;DHT22;3996;49.674;10.716;2024-01-11T10:48:22;2.50;9.40
7902;DHT22;3996;49.674;10.716;2024-01-11T10:50:54;2.20;10.00
7902;DHT22;3996;49.674;10.716;2024-01-11T10:53:31;2.20;10.20
7902;DHT22;3996;49.674;10.716;2024-01-11T10:56:04;1.80;10.50
7902;DHT22;3996;49.674;10.716;2024-01-11T10:58:33;1.80;10.60
7902;DHT22;3996;49.674;10.716;2024-01-11T11:01:01;1.80;10.90
7902;DHT22;3996;49.674;10.716;2024-01-11T11:03:29;1.80;11.40
7902;DHT22;3996;49.674;10.716;2024-01-11T11:05:58;1.70;11.40
7902;DHT22;3996;49.674;10.716;2024-01-11T11:08:24;1.80;12.10
7902;DHT22;3996;49.674;10.716;2024-01-11T11:10:54;2.00;12.20
7902;DHT22;3996;49.674;10.716;2024-01-11T11:13:21;2.00;12.20
7902;DHT22;3996;49.674;10.716;2024-01-11T11:15:48;2.00;12.20
7902;DHT22;3996;49.674;10.716;2024-01-11T11:18:14;2.20;12.40
7902;DHT22;3996;49.674;10.716;2024-01-11T11:20:40;2.00;11.10
7902;DHT22;3996;49.674;10.716;2024-01-11T11:23:17;1.80;12.10
7902;DHT22;3996;49.674;10.716;2024-01-11T11:25:45;2.10;11.60
7902;DHT22;3996;49.674;10.716;2024-01-11T11:28:11;2.00;11.10
7902;DHT22;3996;49.674;10.716;2024-01-11T11:30:52;2.00;10.80
7902;DHT22;3996;49.674;10.716;2024-01-11T11:33:20;1.90;11.50
7902;DHT22;3996;49.674;10.716;2024-01-11T11:35:53;2.10;10.60
7902;DHT22;3996;49.674;10.716;2024-01-11T11:38:27;2.30;10.70
7902;DHT22;3996;49.674;10.716;2024-01-11T11:41:03;2.30;10.70
7902;DHT22;3996;49.674;10.716;2024-01-11T11:43:29;2.20;11.30
7902;DHT22;3996;49.674;10.716;2024-01-11T11:45:57;2.10;11.00
7902;DHT22;3996;49.674;10.716;2024-01-11T11:51:10;2.10;11.20
7902;DHT22;3996;49.674;10.716;2024-01-11T11:53:54;2.20;11.40
7902;DHT22;3996;49.674;10.716;2024-01-11T11:56:21;2.30;11.30
7902;DHT22;3996;49.674;10.716;2024-01-11T11:58:50;2.50;11.00
7902;DHT22;3996;49.674;10.716;2024-01-11T12:01:20;2.50;10.10
7902;DHT22;3996;49.674;10.716;2024-01-11T12:03:49;2.20;11.20
7902;DHT22;3996;49.674;10.716;2024-01-11T12:06:20;2.30;10.70
7902;DHT22;3996;49.674;10.716;2024-01-11T12:08:52;2.20;10.30
7902;DHT22;3996;49.674;10.716;2024-01-11T12:11:56;2.10;10.60
7902;DHT22;3996;49.674;10.716;2024-01-11T12:14:32;2.30;10.10
7902;DHT22;3996;49.674;10.716;2024-01-11T12:17:11;2.40;10.00
7902;DHT22;3996;49.674;10.716;2024-01-11T12:19:39;2.40;10.40
7902;DHT22;3996;49.674;10.716;2024-01-11T12:22:33;2.40;10.40
7902;DHT22;3996;49.674;10.716;2024-01-11T12:25:14;2.40;10.40
7902;DHT22;3996;49.674;10.716;2024-01-11T12:27:40;2.40;10.40
7902;DHT22;3996;49.674;10.716;2024-01-11T12:36:30;2.40;10.90
7902;DHT22;3996;49.674;10.716;2024-01-11T12:39:24;2.30;10.70
7902;DHT22;3996;49.674;10.716;2024-01-11T12:42:27;2.20;10.80
7902;DHT22;3996;49.674;10.716;2024-01-11T12:44:53;2.20;10.30
7902;DHT22;3996;49.674;10.716;2024-01-11T12:47:19;2.30;10.10
7902;DHT22;3996;49.674;10.716;2024-01-11T12:49:46;2.30;10.30
7902;DHT22;3996;49.674;10.716;2024-01-11T12:52:21;2.30;9.50
7902;DHT22;3996;49.674;10.716;2024-01-11T12:54:46;2.30;9.30
7902;DHT22;3996;49.674;10.716;2024-01-11T12:57:19;2.40;9.00
7902;DHT22;3996;49.674;10.716;2024-01-11T13:03:10;2.40;8.30
7902;DHT22;3996;49.674;10.716;2024-01-11T13:05:36;2.50;8.80
7902;DHT22;3996;49.674;10.716;2024-01-11T13:08:02;2.40;8.80
7902;DHT22;3996;49.674;10.716;2024-01-11T13:10:37;2.40;8.80
7902;DHT22;3996;49.674;10.716;2024-01-11T13:13:04;2.60;8.90
7902;DHT22;3996;49.674;10.716;2024-01-11T13:19:15;2.50;8.80
7902;DHT22;3996;49.674;10.716;2024-01-11T13:25:23;2.40;9.10
7902;DHT22;3996;49.674;10.716;2024-01-11T13:31:24;2.40;8.90
7902;DHT22;3996;49.674;10.716;2024-01-11T13:34:12;2.40;9.20
7902;DHT22;3996;49.674;10.716;2024-01-11T13:36:39;2.40;9.10
7902;DHT22;3996;49.674;10.716;2024-01-11T13:39:07;2.40;8.80
7902;DHT22;3996;49.674;10.716;2024-01-11T13:42:05;2.30;9.30
7902;DHT22;3996;49.674;10.716;2024-01-11T13:44:49;2.20;9.30
7902;DHT22;3996;49.674;10.716;2024-01-11T13:48:05;2.20;9.30
7902;DHT22;3996;49.674;10.716;2024-01-11T13:50:34;2.20;8.70
7902;DHT22;3996;49.674;10.716;2024-01-11T13:53:00;2.30;8.70
7902;DHT22;3996;49.674;10.716;2024-01-11T13:55:27;2.20;8.30
7902;DHT22;3996;49.674;10.716;2024-01-11T13:57:57;2.20;8.70
7902;DHT22;3996;49.674;10.716;2024-01-11T14:00:23;2.20;9.20
7902;DHT22;3996;49.674;10.716;2024-01-11T14:02:52;2.20;9.40
7902;DHT22;3996;49.674;10.716;2024-01-11T14:05:17;2.20;9.20
7902;DHT22;3996;49.674;10.716;2024-01-11T14:07:44;2.20;9.30
7902;DHT22;3996;49.674;10.716;2024-01-11T14:10:11;2.30;9.30
7902;DHT22;3996;49.674;10.716;2024-01-11T14:13:02;2.30;9.50
7902;DHT22;3996;49.674;10.716;2024-01-11T14:15:32;2.20;9.10
7902;DHT22;3996;49.674;10.716;2024-01-11T14:18:03;2.20;8.70
7902;DHT22;3996;49.674;10.716;2024-01-11T14:20:29;2.10;8.50
7902;DHT22;3996;49.674;10.716;2024-01-11T14:22:55;2.10;8.60
7902;DHT22;3996;49.674;10.716;2024-01-11T14:25:25;2.10;8.80
7902;DHT22;3996;49.674;10.716;2024-01-11T14:27:52;2.00;9.20
7902;DHT22;3996;49.674;10.716;2024-01-11T14:30:21;2.00;8.80
7902;DHT22;3996;49.674;10.716;2024-01-11T14:32:49;2.00;8.70
7902;DHT22;3996;49.674;10.716;2024-01-11T14:35:17;2.00;9.10
7902;DHT22;3996;49.674;10.716;2024-01-11T14:37:44;2.00;9.20
7902;DHT22;3996;49.674;10.716;2024-01-11T14:40:10;1.90;9.40
7902;DHT22;3996;49.674;10.716;2024-01-11T14:42:40;1.90;10.00
7902;DHT22;3996;49.674;10.716;2024-01-11T14:45:07;1.80;9.90
7902;DHT22;3996;49.674;10.716;2024-01-11T14:47:33;1.80;9.80
7902;DHT22;3996;49.674;10.716;2024-01-11T14:50:00;1.80;10.20
7902;DHT22;3996;49.674;10.716;2024-01-11T14:52:26;1.80;10.40
7902;DHT22;3996;49.674;10.716;2024-01-11T14:54:56;1.80;10.30
7902;DHT22;3996;49.674;10.716;2024-01-11T14:57:22;1.70;10.20
7902;DHT22;3996;49.674;10.716;2024-01-11T14:59:48;1.60;11.20
7902;DHT22;3996;49.674;10.716;2024-01-11T15:02:14;1.60;11.50
7902;DHT22;3996;49.674;10.716;2024-01-11T15:04:40;1.50;11.10
7902;DHT22;3996;49.674;10.716;2024-01-11T15:07:07;1.50;11.90
7902;DHT22;3996;49.674;10.716;2024-01-11T15:09:37;1.40;11.80
7902;DHT22;3996;49.674;10.716;2024-01-11T15:12:03;1.40;11.80
7902;DHT22;3996;49.674;10.716;2024-01-11T15:14:31;1.30;12.30
7902;DHT22;3996;49.674;10.716;2024-01-11T15:16:57;1.30;12.90
7902;DHT22;3996;49.674;10.716;2024-01-11T15:19:24;1.30;12.70
7902;DHT22;3996;49.674;10.716;2024-01-11T15:21:49;1.30;12.10
7902;DHT22;3996;49.674;10.716;2024-01-11T15:24:16;1.30;12.20
7902;DHT22;3996;49.674;10.716;2024-01-11T15:26:46;1.20;12.30
7902;DHT22;3996;49.674;10.716;2024-01-11T15:29:12;1.30;12.80
7902;DHT22;3996;49.674;10.716;2024-01-11T15:31:38;1.30;13.20
7902;DHT22;3996;49.674;10.716;2024-01-11T15:34:06;1.20;13.30
7902;DHT22;3996;49.674;10.716;2024-01-11T15:36:32;1.10;13.90
7902;DHT22;3996;49.674;10.716;2024-01-11T15:38:58;1.10;14.40
7902;DHT22;3996;49.674;10.716;2024-01-11T15:41:24;0.90;14.20
7902;DHT22;3996;49.674;10.716;2024-01-11T15:43:50;0.70;14.80
7902;DHT22;3996;49.674;10.716;2024-01-11T15:46:16;0.70;15.20
7902;DHT22;3996;49.674;10.716;2024-01-11T15:48:42;0.80;15.70
7902;DHT22;3996;49.674;10.716;2024-01-11T15:51:08;0.80;15.20
7902;DHT22;3996;49.674;10.716;2024-01-11T15:53:34;0.80;15.50
7902;DHT22;3996;49.674;10.716;2024-01-11T15:56:01;0.70;15.80
7902;DHT22;3996;49.674;10.716;2024-01-11T15:58:29;0.70;15.60
7902;DHT22;3996;49.674;10.716;2024-01-11T16:00:55;0.60;15.90
7902;DHT22;3996;49.674;10.716;2024-01-11T16:03:20;0.50;16.10
7902;DHT22;3996;49.674;10.716;2024-01-11T16:05:46;0.50;16.40
7902;DHT22;3996;49.674;10.716;2024-01-11T16:08:11;0.40;16.70
7902;DHT22;3996;49.674;10.716;2024-01-11T16:10:43;0.40;16.80
7902;DHT22;3996;49.674;10.716;2024-01-11T16:13:08;0.40;16.30
7902;DHT22;3996;49.674;10.716;2024-01-11T16:15:34;0.50;16.70
7902;DHT22;3996;49.674;10.716;2024-01-11T16:18:01;0.40;16.50
7902;DHT22;3996;49.674;10.716;2024-01-11T16:20:26;0.50;16.70
7902;DHT22;3996;49.674;10.716;2024-01-11T16:22:52;0.40;16.80